createdAt,value
2023-02-03T00:00:22.225Z,10.25
2023-02-03T00:02:27.001Z,10.27
2023-02-03T00:04:31.790Z,10.28
2023-02-03T00:06:36.704Z,10.29
2023-02-03T00:08:41.725Z,10.28
2023-02-03T00:10:46.774Z,10.30
2023-02-03T00:12:56.336Z,10.29
2023-02-03T00:15:01.161Z,10.33
2023-02-03T00:17:05.955Z,10.31
2023-02-03T00:19:10.628Z,10.30
2023-02-03T00:21:15.508Z,10.29
2023-02-03T00:23:20.245Z,10.28
2023-02-03T00:25:25.133Z,10.29
2023-02-03T00:27:29.832Z,10.29
2023-02-03T00:29:37.164Z,10.28
2023-02-03T00:31:42.030Z,10.28
2023-02-03T00:33:46.984Z,10.23
2023-02-03T00:35:51.825Z,10.18
2023-02-03T00:37:57.965Z,10.14
2023-02-03T00:40:02.674Z,10.14
2023-02-03T00:42:08.709Z,10.15
2023-02-03T00:44:13.515Z,10.15
2023-02-03T00:46:20.987Z,10.14
2023-02-03T00:48:25.740Z,10.17
2023-02-03T00:50:30.597Z,10.18
2023-02-03T00:52:35.531Z,10.19
2023-02-03T00:54:40.381Z,10.20
2023-02-03T00:56:45.758Z,10.22
2023-02-03T00:58:50.615Z,10.23
2023-02-03T01:00:58.371Z,10.22
2023-02-03T01:03:05.961Z,10.21
2023-02-03T01:05:11.439Z,10.24
2023-02-03T01:07:16.236Z,10.26
2023-02-03T01:09:20.922Z,10.25
2023-02-03T01:11:27.315Z,10.26
2023-02-03T01:13:32.089Z,10.22
2023-02-03T01:15:37.133Z,10.20
2023-02-03T01:17:41.902Z,10.19
2023-02-03T01:19:49.200Z,10.16
2023-02-03T01:21:54.644Z,10.17
2023-02-03T01:24:02.154Z,10.16
2023-02-03T01:26:08.689Z,10.19
2023-02-03T01:28:13.888Z,10.21
2023-02-03T01:30:19.045Z,10.22
2023-02-03T01:32:25.031Z,10.21
2023-02-03T01:34:29.730Z,10.21
2023-02-03T01:36:38.334Z,10.21
2023-02-03T01:38:43.182Z,10.24
2023-02-03T01:40:48.666Z,10.24
2023-02-03T01:42:53.362Z,10.25
2023-02-03T01:44:58.585Z,10.26
2023-02-03T01:47:03.552Z,10.25
2023-02-03T01:49:12.269Z,10.26
2023-02-03T01:51:16.969Z,10.26
2023-02-03T01:53:24.798Z,10.26
2023-02-03T01:55:33.120Z,10.28
2023-02-03T01:57:42.919Z,10.27
2023-02-03T01:59:48.592Z,10.28
2023-02-03T02:01:54.959Z,10.26
2023-02-03T02:04:02.335Z,10.26
2023-02-03T02:06:09.138Z,10.26
2023-02-03T02:08:15.739Z,10.27
2023-02-03T02:10:23.436Z,10.24
2023-02-03T02:12:28.083Z,10.23
2023-02-03T02:14:34.116Z,10.24
2023-02-03T02:16:48.627Z,10.26
2023-02-03T02:19:06.250Z,10.26
2023-02-03T02:21:37.213Z,10.24
2023-02-03T02:24:10.854Z,10.20
2023-02-03T02:26:41.654Z,10.18
2023-02-03T02:29:15.712Z,10.17
2023-02-03T02:31:52.874Z,10.16
2023-02-03T02:34:06.627Z,10.17
2023-02-03T02:36:24.403Z,10.17
2023-02-03T02:38:41.061Z,10.15
2023-02-03T02:40:53.476Z,10.13
2023-02-03T02:43:08.054Z,10.16
2023-02-03T02:45:26.483Z,10.19
2023-02-03T02:47:32.445Z,10.22
2023-02-03T02:49:45.457Z,10.22
2023-02-03T02:51:51.762Z,10.22
2023-02-03T02:53:59.514Z,10.21
2023-02-03T02:56:10.643Z,10.21
2023-02-03T02:58:19.387Z,10.20
2023-02-03T03:00:25.739Z,10.22
2023-02-03T03:02:35.689Z,10.21
2023-02-03T03:04:48.499Z,10.21
2023-02-03T03:07:00.493Z,10.17
2023-02-03T03:09:08.772Z,10.11
2023-02-03T03:11:17.285Z,10.05
2023-02-03T03:13:28.373Z,10.00
2023-02-03T03:15:36.353Z,9.98
2023-02-03T03:17:51.791Z,9.96
2023-02-03T03:20:03.802Z,9.96
2023-02-03T03:22:10.501Z,9.97
2023-02-03T03:24:27.237Z,9.98
2023-02-03T03:26:38.166Z,10.01
2023-02-03T03:28:49.667Z,10.02
2023-02-03T03:30:55.201Z,10.03
2023-02-03T03:33:00.759Z,10.03
2023-02-03T03:35:09.786Z,10.01
2023-02-03T03:37:21.027Z,10.01
2023-02-03T03:39:31.311Z,10.00
2023-02-03T03:41:44.108Z,9.99
2023-02-03T03:43:51.513Z,10.01
2023-02-03T03:46:01.252Z,10.04
2023-02-03T03:48:12.366Z,10.03
2023-02-03T03:50:24.940Z,10.05
2023-02-03T03:52:34.909Z,10.03
2023-02-03T03:54:41.813Z,10.05
2023-02-03T03:57:01.476Z,10.05
2023-02-03T03:59:08.638Z,10.08
2023-02-03T04:01:14.938Z,10.11
2023-02-03T04:03:23.603Z,10.11
2023-02-03T04:05:31.313Z,10.11
2023-02-03T04:07:41.449Z,10.09
2023-02-03T04:09:46.343Z,10.06
2023-02-03T04:12:06.666Z,10.06
2023-02-03T04:14:11.740Z,10.05
2023-02-03T04:16:16.508Z,10.04
2023-02-03T04:18:21.348Z,10.07
2023-02-03T04:20:26.943Z,10.11
2023-02-03T04:22:34.594Z,10.11
2023-02-03T04:24:39.301Z,10.13
2023-02-03T04:26:44.233Z,10.11
2023-02-03T04:28:48.907Z,10.11
2023-02-03T04:30:53.639Z,10.11
2023-02-03T04:32:58.361Z,10.12
2023-02-03T04:35:03.189Z,10.14
2023-02-03T04:37:07.951Z,10.14
2023-02-03T04:39:15.370Z,10.14
2023-02-03T04:41:20.559Z,10.19
2023-02-03T04:43:25.345Z,10.20
2023-02-03T04:45:30.102Z,10.24
2023-02-03T04:47:34.895Z,10.25
2023-02-03T04:49:39.625Z,10.26
2023-02-03T04:51:44.484Z,10.26
2023-02-03T04:53:49.257Z,10.25
2023-02-03T04:55:56.635Z,10.27
2023-02-03T04:58:02.619Z,10.31
2023-02-03T05:00:08.958Z,10.31
2023-02-03T05:02:14.004Z,10.33
2023-02-03T05:04:18.898Z,10.33
2023-02-03T05:06:27.063Z,10.35
2023-02-03T05:08:32.312Z,10.38
2023-02-03T05:10:37.014Z,10.36
2023-02-03T05:12:44.332Z,10.33
2023-02-03T05:14:49.058Z,10.34
2023-02-03T05:16:54.119Z,10.31
2023-02-03T05:18:58.908Z,10.28
2023-02-03T05:21:03.684Z,10.24
2023-02-03T05:23:08.374Z,10.22
2023-02-03T05:25:13.399Z,10.22
2023-02-03T05:27:18.502Z,10.20
2023-02-03T05:29:25.873Z,10.19
2023-02-03T05:31:30.624Z,10.23
2023-02-03T05:33:35.564Z,10.24
2023-02-03T05:35:40.249Z,10.25
2023-02-03T05:37:47.109Z,10.28
2023-02-03T05:39:51.929Z,10.31
2023-02-03T05:41:57.126Z,10.33
2023-02-03T05:44:02.777Z,10.28
2023-02-03T05:46:10.867Z,10.24
2023-02-03T05:48:15.597Z,10.24
2023-02-03T05:50:20.710Z,10.28
2023-02-03T05:52:26.746Z,10.30
2023-02-03T05:54:31.805Z,10.30
2023-02-03T05:56:36.508Z,10.27
2023-02-03T05:58:41.186Z,10.26
2023-02-03T06:00:45.990Z,10.24
2023-02-03T06:02:57.408Z,10.20
2023-02-03T06:05:02.377Z,10.20
2023-02-03T06:07:07.278Z,10.18
2023-02-03T06:09:12.210Z,10.14
2023-02-03T06:11:16.954Z,10.11
2023-02-03T06:13:21.586Z,10.10
2023-02-03T06:15:26.339Z,10.10
2023-02-03T06:17:31.170Z,10.13
2023-02-03T06:19:38.574Z,10.14
2023-02-03T06:21:43.295Z,10.13
2023-02-03T06:23:48.031Z,10.14
2023-02-03T06:25:53.645Z,10.17
2023-02-03T06:27:58.404Z,10.20
2023-02-03T06:30:03.341Z,10.20
2023-02-03T06:32:08.225Z,10.22
2023-02-03T06:34:13.043Z,10.20
2023-02-03T06:36:20.457Z,10.18
2023-02-03T06:38:25.551Z,10.19
2023-02-03T06:40:30.846Z,10.21
2023-02-03T06:42:36.070Z,10.23
2023-02-03T06:44:41.224Z,10.24
2023-02-03T06:46:46.161Z,10.26
2023-02-03T06:48:50.890Z,10.25
2023-02-03T06:50:55.808Z,10.24
2023-02-03T06:53:03.134Z,10.25
2023-02-03T06:55:09.825Z,10.27
2023-02-03T06:57:14.650Z,10.29
2023-02-03T06:59:19.503Z,10.29
2023-02-03T07:01:26.080Z,10.27
2023-02-03T07:03:31.010Z,10.25
2023-02-03T07:05:36.981Z,10.22
2023-02-03T07:07:41.942Z,10.21
2023-02-03T07:09:49.238Z,10.16
2023-02-03T07:11:53.935Z,10.18
2023-02-03T07:13:58.642Z,10.16
2023-02-03T07:16:03.355Z,10.17
2023-02-03T07:18:08.234Z,10.18
2023-02-03T07:20:14.139Z,10.20
2023-02-03T07:22:19.040Z,10.17
2023-02-03T07:24:23.746Z,10.13
2023-02-03T07:26:31.107Z,10.07
2023-02-03T07:28:36.328Z,10.11
2023-02-03T07:30:41.177Z,10.11
2023-02-03T07:32:49.916Z,10.06
2023-02-03T07:34:54.663Z,10.05
2023-02-03T07:37:00.063Z,10.04
2023-02-03T07:39:04.942Z,10.02
2023-02-03T07:41:10.073Z,10.02
2023-02-03T07:43:17.958Z,10.01
2023-02-03T07:45:24.961Z,10.01
2023-02-03T07:47:30.384Z,10.02
2023-02-03T07:49:35.512Z,10.00
2023-02-03T07:51:40.509Z,9.95
2023-02-03T07:53:45.208Z,9.91
2023-02-03T07:55:50.001Z,9.92
2023-02-03T07:57:56.705Z,9.93
2023-02-03T08:00:04.158Z,9.90
2023-02-03T08:02:17.313Z,9.89
2023-02-03T08:04:22.245Z,9.89
2023-02-03T08:06:26.894Z,9.87
2023-02-03T08:08:32.034Z,9.87
2023-02-03T08:10:37.646Z,9.89
2023-02-03T08:12:45.070Z,9.92
2023-02-03T08:14:50.004Z,9.95
2023-02-03T08:16:57.363Z,9.99
2023-02-03T08:19:02.024Z,10.04
2023-02-03T08:21:07.273Z,10.08
2023-02-03T08:23:12.658Z,10.12
2023-02-03T08:25:17.674Z,10.14
2023-02-03T08:27:24.500Z,10.16
2023-02-03T08:29:29.200Z,10.17
2023-02-03T08:31:34.266Z,10.18
2023-02-03T08:33:41.744Z,10.19
2023-02-03T08:35:50.229Z,10.20
2023-02-03T08:37:55.824Z,10.23
2023-02-03T08:40:00.923Z,10.24
2023-02-03T08:42:05.870Z,10.26
2023-02-03T08:44:10.832Z,10.25
2023-02-03T08:46:16.953Z,10.22
2023-02-03T08:48:21.778Z,10.21
2023-02-03T08:50:29.519Z,10.16
2023-02-03T08:52:34.474Z,10.17
2023-02-03T08:54:39.704Z,10.18
2023-02-03T08:56:44.687Z,10.21
2023-02-03T08:58:49.660Z,10.23
2023-02-03T09:00:55.595Z,10.25
2023-02-03T09:03:00.457Z,10.28
2023-02-03T09:05:05.322Z,10.30
2023-02-03T09:07:13.466Z,10.31
2023-02-03T09:09:18.436Z,10.33
2023-02-03T09:11:23.171Z,10.33
2023-02-03T09:13:28.076Z,10.30
2023-02-03T09:15:32.857Z,10.29
2023-02-03T09:17:37.600Z,10.28
2023-02-03T09:19:42.478Z,10.27
2023-02-03T09:21:49.240Z,10.27
2023-02-03T09:23:57.293Z,10.25
2023-02-03T09:26:04.908Z,10.26
2023-02-03T09:28:09.924Z,10.25
2023-02-03T09:30:17.077Z,10.25
2023-02-03T09:32:22.327Z,10.26
2023-02-03T09:34:27.383Z,10.28
2023-02-03T09:36:32.375Z,10.28
2023-02-03T09:38:38.068Z,10.27
2023-02-03T09:40:45.470Z,10.23
2023-02-03T09:43:11.439Z,10.20
2023-02-03T09:45:24.033Z,10.24
2023-02-03T09:47:33.499Z,10.29
2023-02-03T09:49:42.584Z,10.31
2023-02-03T09:51:52.390Z,10.36
2023-02-03T09:54:02.771Z,10.38
2023-02-03T09:56:21.209Z,10.38
2023-02-03T09:58:26.495Z,10.41
2023-02-03T10:00:35.101Z,10.39
2023-02-03T10:02:53.080Z,10.38
2023-02-03T10:05:03.113Z,10.38
2023-02-03T10:07:20.220Z,10.37
2023-02-03T10:09:42.447Z,10.35
2023-02-03T10:12:04.937Z,10.34
2023-02-03T10:14:25.746Z,10.39
2023-02-03T10:16:44.947Z,10.39
2023-02-03T10:18:53.925Z,10.41
2023-02-03T10:21:02.806Z,10.42
2023-02-03T10:23:14.746Z,10.43
2023-02-03T10:25:25.112Z,10.45
2023-02-03T10:27:34.080Z,10.45
2023-02-03T10:29:45.343Z,10.45
2023-02-03T10:31:50.505Z,10.48
2023-02-03T10:34:02.319Z,10.46
2023-02-03T10:36:18.185Z,10.50
2023-02-03T10:38:34.127Z,10.52
2023-02-03T10:40:40.057Z,10.57
2023-02-03T10:43:02.498Z,10.58
2023-02-03T10:45:08.178Z,10.60
2023-02-03T10:47:24.980Z,10.62
2023-02-03T10:49:31.763Z,10.70
2023-02-03T10:51:40.432Z,10.71
2023-02-03T10:53:46.383Z,10.73
2023-02-03T10:55:55.009Z,10.76
2023-02-03T10:58:16.515Z,10.78
2023-02-03T11:00:30.857Z,10.85
2023-02-03T11:02:35.760Z,10.91
2023-02-03T11:04:40.601Z,10.93
2023-02-03T11:06:58.019Z,10.92
2023-02-03T11:09:03.920Z,10.93
2023-02-03T11:11:11.342Z,10.92
2023-02-03T11:13:22.098Z,10.93
2023-02-03T11:15:27.096Z,10.96
2023-02-03T11:17:34.600Z,10.97
2023-02-03T11:19:42.200Z,10.98
2023-02-03T11:21:50.750Z,10.97
2023-02-03T11:24:00.155Z,11.00
2023-02-03T11:26:14.639Z,11.04
2023-02-03T11:28:22.217Z,11.15
2023-02-03T11:30:30.580Z,11.28
2023-02-03T11:32:38.269Z,11.44
2023-02-03T11:34:49.030Z,11.59
2023-02-03T11:36:53.978Z,11.70
2023-02-03T11:39:24.151Z,11.78
2023-02-03T11:41:28.830Z,11.90
2023-02-03T11:43:36.256Z,11.97
2023-02-03T11:45:44.616Z,12.03
2023-02-03T11:47:53.747Z,12.10
2023-02-03T11:50:10.939Z,12.13
2023-02-03T11:52:35.320Z,12.15
2023-02-03T11:54:46.896Z,12.21
2023-02-03T11:57:13.951Z,12.22
2023-02-03T12:00:03.482Z,12.25
2023-02-03T12:02:39.963Z,12.26
2023-02-03T12:05:12.243Z,12.25
2023-02-03T12:07:48.905Z,12.28
2023-02-03T12:09:59.670Z,12.33
2023-02-03T12:12:24.680Z,12.34
2023-02-03T12:14:45.913Z,12.39
2023-02-03T12:17:09.863Z,12.42
2023-02-03T12:19:23.141Z,12.45
2023-02-03T12:21:45.503Z,12.36
2023-02-03T12:23:59.184Z,12.40
2023-02-03T12:26:17.141Z,12.42
2023-02-03T12:28:42.602Z,12.45
2023-02-03T12:30:52.315Z,12.45
2023-02-03T12:33:00.964Z,12.45
2023-02-03T12:35:19.325Z,12.47
2023-02-03T12:37:33.462Z,12.49
2023-02-03T12:39:45.932Z,12.54
2023-02-03T12:41:55.422Z,12.57
2023-02-03T12:44:04.722Z,12.63
2023-02-03T12:46:17.197Z,12.63
2023-02-03T12:48:26.571Z,12.64
2023-02-03T12:50:37.210Z,12.63
2023-02-03T12:52:50.495Z,12.63
2023-02-03T12:55:02.642Z,12.62
2023-02-03T12:57:18.809Z,12.56
2023-02-03T12:59:28.440Z,12.55
2023-02-03T13:01:38.296Z,12.56
2023-02-03T13:03:48.706Z,12.57
2023-02-03T13:06:00.960Z,12.57
2023-02-03T13:08:17.786Z,12.55
2023-02-03T13:10:29.783Z,12.57
2023-02-03T13:12:41.177Z,12.56
2023-02-03T13:14:50.494Z,12.53
2023-02-03T13:17:00.378Z,12.52
2023-02-03T13:19:09.020Z,12.54
2023-02-03T13:21:14.834Z,12.54
2023-02-03T13:23:22.745Z,12.53
2023-02-03T13:25:34.301Z,12.55
2023-02-03T13:27:45.725Z,12.53
2023-02-03T13:30:07.759Z,12.52
2023-02-03T13:32:27.229Z,12.51
2023-02-03T13:34:52.664Z,12.47
2023-02-03T13:37:15.992Z,12.46
2023-02-03T13:39:42.864Z,12.40
2023-02-03T13:41:51.134Z,12.37
2023-02-03T13:43:57.783Z,12.39
2023-02-03T13:46:03.450Z,12.38
2023-02-03T13:48:13.938Z,12.37
2023-02-03T13:50:25.669Z,12.38
2023-02-03T13:52:37.185Z,12.38
2023-02-03T13:54:47.302Z,12.38
2023-02-03T13:56:58.363Z,12.38
2023-02-03T13:59:07.180Z,12.38
2023-02-03T14:01:33.464Z,12.34
2023-02-03T14:03:48.655Z,12.34
2023-02-03T14:05:55.113Z,12.37
2023-02-03T14:07:59.988Z,12.38
2023-02-03T14:10:19.329Z,12.32
2023-02-03T14:13:02.428Z,12.29
2023-02-03T14:15:31.489Z,12.30
2023-02-03T14:18:26.960Z,12.30
2023-02-03T14:20:54.524Z,12.28
2023-02-03T14:23:02.262Z,12.29
2023-02-03T14:25:09.829Z,12.30
2023-02-03T14:27:26.199Z,12.26
2023-02-03T14:29:32.929Z,12.27
2023-02-03T14:31:57.188Z,12.23
2023-02-03T14:34:17.155Z,12.26
2023-02-03T14:36:38.160Z,12.27
2023-02-03T14:38:44.578Z,12.31
2023-02-03T14:40:56.906Z,12.30
2023-02-03T14:43:34.864Z,12.26
2023-02-03T14:46:02.513Z,12.23
2023-02-03T14:48:23.791Z,12.23
2023-02-03T14:50:46.264Z,12.26
2023-02-03T14:53:12.775Z,12.27
2023-02-03T14:55:31.296Z,12.29
2023-02-03T14:57:43.916Z,12.30
2023-02-03T14:59:57.532Z,12.32
2023-02-03T15:02:14.839Z,12.23
2023-02-03T15:04:27.375Z,12.30
2023-02-03T15:06:42.752Z,12.33
2023-02-03T15:08:49.002Z,12.38
2023-02-03T15:10:53.767Z,12.42
2023-02-03T15:13:00.860Z,12.42
2023-02-03T15:15:24.266Z,12.41
2023-02-03T15:17:31.425Z,12.40
2023-02-03T15:19:38.257Z,12.41
2023-02-03T15:21:44.932Z,12.39
2023-02-03T15:23:52.158Z,12.40
2023-02-03T15:25:58.063Z,12.42
2023-02-03T15:28:17.148Z,12.40
2023-02-03T15:30:28.503Z,12.40
2023-02-03T15:32:37.952Z,12.42
2023-02-03T15:34:46.600Z,12.41
2023-02-03T15:36:54.646Z,12.42
2023-02-03T15:39:05.013Z,12.42
2023-02-03T15:41:13.921Z,12.44
2023-02-03T15:43:22.206Z,12.43
2023-02-03T15:45:32.924Z,12.40
2023-02-03T15:47:44.472Z,12.40
2023-02-03T15:49:53.201Z,12.39
2023-02-03T15:52:02.442Z,12.38
2023-02-03T15:54:14.610Z,12.38
2023-02-03T15:56:27.552Z,12.38
2023-02-03T15:58:36.219Z,12.38
2023-02-03T16:00:44.075Z,12.37
2023-02-03T16:02:49.687Z,12.37
2023-02-03T16:04:55.005Z,12.37
2023-02-03T16:07:00.748Z,12.37
2023-02-03T16:09:07.104Z,12.36
2023-02-03T16:11:26.434Z,12.34
2023-02-03T16:13:33.485Z,12.36
2023-02-03T16:15:39.149Z,12.36
2023-02-03T16:17:46.505Z,12.34
2023-02-03T16:19:51.405Z,12.36
2023-02-03T16:21:59.815Z,12.36
2023-02-03T16:24:05.411Z,12.34
2023-02-03T16:26:21.138Z,12.30
2023-02-03T16:28:38.313Z,12.31
2023-02-03T16:31:07.249Z,12.27
2023-02-03T16:33:33.611Z,12.21
2023-02-03T16:35:50.814Z,12.20
2023-02-03T16:38:08.011Z,12.19
2023-02-03T16:40:26.836Z,12.16
2023-02-03T16:42:53.173Z,12.13
2023-02-03T16:45:10.334Z,12.13
2023-02-03T16:47:39.186Z,12.11
2023-02-03T16:49:59.168Z,12.11
2023-02-03T16:52:06.731Z,12.14
2023-02-03T16:54:17.465Z,12.14
2023-02-03T16:56:22.168Z,12.17
2023-02-03T16:58:27.328Z,12.18
2023-02-03T17:00:32.275Z,12.17
2023-02-03T17:02:36.992Z,12.17
2023-02-03T17:04:41.719Z,12.17
2023-02-03T17:06:51.239Z,12.15
2023-02-03T17:08:57.837Z,12.14
2023-02-03T17:11:09.314Z,12.11
2023-02-03T17:13:14.996Z,12.08
2023-02-03T17:15:20.131Z,12.07
2023-02-03T17:17:24.841Z,12.04
2023-02-03T17:19:29.603Z,12.01
2023-02-03T17:21:34.697Z,12.02
2023-02-03T17:23:42.769Z,11.99
2023-02-03T17:25:48.496Z,12.00
2023-02-03T17:27:53.263Z,11.98
2023-02-03T17:29:58.117Z,11.97
2023-02-03T17:32:02.994Z,11.97
2023-02-03T17:34:07.751Z,11.95
2023-02-03T17:36:15.340Z,11.93
2023-02-03T17:38:20.182Z,11.93
2023-02-03T17:54:22.482Z,11.61
2023-02-03T17:56:29.829Z,11.55
2023-02-03T17:58:34.543Z,11.51
2023-02-03T18:00:39.196Z,11.50
2023-02-03T18:02:44.658Z,11.53
2023-02-03T18:04:49.446Z,11.57
2023-02-03T18:06:54.634Z,11.58
2023-02-03T18:09:01.858Z,11.56
2023-02-03T18:11:07.219Z,11.56
2023-02-03T18:13:14.480Z,11.56
2023-02-03T18:15:19.623Z,11.56
2023-02-03T18:17:24.343Z,11.55
2023-02-03T18:19:29.068Z,11.52
2023-02-03T18:21:37.608Z,11.52
2023-02-03T18:23:42.767Z,11.54
2023-02-03T18:25:47.436Z,11.55
2023-02-03T18:27:53.791Z,11.52
2023-02-03T18:30:01.744Z,11.51
2023-02-03T18:32:06.799Z,11.54
2023-02-03T18:34:11.814Z,11.57
2023-02-03T18:36:18.380Z,11.60
2023-02-03T18:38:23.598Z,11.61
2023-02-03T18:40:28.820Z,11.59
2023-02-03T18:42:33.810Z,11.58
2023-02-03T18:44:39.668Z,11.60
2023-02-03T18:46:46.960Z,11.58
2023-02-03T18:48:51.710Z,11.59
2023-02-03T18:50:56.618Z,11.58
2023-02-03T18:53:01.556Z,11.54
2023-02-03T18:55:06.314Z,11.56
2023-02-03T18:57:13.338Z,11.59
2023-02-03T18:59:18.035Z,11.59
2023-02-03T19:01:25.648Z,11.57
2023-02-03T19:03:32.989Z,11.59
2023-02-03T19:05:37.943Z,11.61
2023-02-03T19:07:42.664Z,11.62
2023-02-03T19:09:47.401Z,11.65
2023-02-03T19:11:52.105Z,11.65
2023-02-03T19:13:56.950Z,11.68
2023-02-03T19:16:02.462Z,11.66
2023-02-03T19:18:07.318Z,11.67
2023-02-03T19:20:16.130Z,11.63
2023-02-03T19:22:20.889Z,11.62
2023-02-03T19:24:26.877Z,11.60
2023-02-03T19:26:31.736Z,11.56
2023-02-03T19:28:36.458Z,11.56
2023-02-03T19:30:41.299Z,11.57
2023-02-03T19:32:46.168Z,11.58
2023-02-03T19:34:50.868Z,11.59
2023-02-03T19:36:59.215Z,11.59
2023-02-03T19:39:03.909Z,11.61
2023-02-03T19:41:09.647Z,11.62
2023-02-03T19:43:14.434Z,11.64
2023-02-03T19:45:19.534Z,11.65
2023-02-03T19:47:24.298Z,11.66
2023-02-03T19:49:29.005Z,11.66
2023-02-03T19:51:33.695Z,11.66
2023-02-03T19:53:40.955Z,11.63
2023-02-03T19:55:46.139Z,11.62
2023-02-03T19:57:50.846Z,11.61
2023-02-03T19:59:56.730Z,11.61
2023-02-03T20:02:12.682Z,11.62
2023-02-03T20:04:18.725Z,11.63
2023-02-03T20:06:23.806Z,11.64
2023-02-03T20:08:28.678Z,11.63
2023-02-03T20:10:36.170Z,11.59
2023-02-03T20:12:40.905Z,11.58
2023-02-03T20:14:45.597Z,11.59
2023-02-03T20:16:51.213Z,11.59
2023-02-03T20:18:56.306Z,11.58
2023-02-03T20:21:01.647Z,11.61
2023-02-03T20:23:06.408Z,11.65
2023-02-03T20:25:12.186Z,11.70
2023-02-03T20:27:20.466Z,11.71
2023-02-03T20:29:25.206Z,11.70
2023-02-03T20:31:29.932Z,11.69
2023-02-03T20:33:35.532Z,11.73
2023-02-03T20:35:41.073Z,11.76
2023-02-03T20:37:45.834Z,11.76
2023-02-03T20:39:50.604Z,11.75
2023-02-03T20:41:55.678Z,11.76
2023-02-03T20:44:02.974Z,11.75
2023-02-03T20:46:13.692Z,11.74
2023-02-03T20:48:20.269Z,11.75
2023-02-03T20:50:40.656Z,11.75
2023-02-03T20:52:46.447Z,11.77
2023-02-03T20:54:51.217Z,11.79
2023-02-03T20:56:56.306Z,11.81
2023-02-03T20:59:03.914Z,11.81
2023-02-03T21:01:16.283Z,11.76
2023-02-03T21:03:35.002Z,11.76
2023-02-03T21:05:41.999Z,11.74
2023-02-03T21:07:46.689Z,11.75
2023-02-03T21:09:51.360Z,11.77
2023-02-03T21:11:56.976Z,11.79
2023-02-03T21:14:06.456Z,11.81
2023-02-03T21:16:20.258Z,11.81
2023-02-03T21:18:35.509Z,11.79
2023-02-03T21:20:40.582Z,11.82
2023-02-03T21:22:45.228Z,11.84
2023-02-03T21:24:53.794Z,11.81
2023-02-03T21:26:59.247Z,11.83
2023-02-03T21:29:06.592Z,11.82
2023-02-03T21:31:21.624Z,11.81
2023-02-03T21:33:35.464Z,11.82
2023-02-03T21:35:40.825Z,11.86
2023-02-03T21:37:45.569Z,11.87
2023-02-03T21:39:51.154Z,11.89
2023-02-03T21:41:55.960Z,11.91
2023-02-03T21:44:01.926Z,11.94
2023-02-03T21:46:13.181Z,11.92
2023-02-03T21:48:32.711Z,11.87
2023-02-03T21:50:40.969Z,11.88
2023-02-03T21:52:45.795Z,11.87
2023-02-03T21:54:50.508Z,11.88
2023-02-03T21:56:55.579Z,11.86
2023-02-03T21:59:00.518Z,11.84
2023-02-03T22:01:09.083Z,11.82
2023-02-03T22:03:21.901Z,11.79
2023-02-03T22:05:27.144Z,11.78
2023-02-03T22:07:32.000Z,11.80
2023-02-03T22:09:36.709Z,11.80
2023-02-03T22:11:41.449Z,11.78
2023-02-03T22:13:46.145Z,11.75
2023-02-03T22:15:51.074Z,11.74
2023-02-03T22:17:58.469Z,11.72
2023-02-03T22:20:03.214Z,11.76
2023-02-03T22:22:07.884Z,11.78
2023-02-03T22:24:12.662Z,11.78
2023-02-03T22:26:18.301Z,11.77
2023-02-03T22:28:23.094Z,11.75
2023-02-03T22:30:27.871Z,11.75
2023-02-03T22:32:32.733Z,11.74
2023-02-03T22:34:40.001Z,11.75
2023-02-03T22:36:44.672Z,11.78
2023-02-03T22:38:49.330Z,11.81
2023-02-03T22:40:55.517Z,11.81
2023-02-03T22:43:00.355Z,11.82
2023-02-03T22:45:05.083Z,11.83
2023-02-03T22:47:09.784Z,11.86
2023-02-03T22:49:14.578Z,11.87
2023-02-03T22:51:21.804Z,11.85
2023-02-03T22:53:26.747Z,11.87
2023-02-03T22:55:31.517Z,11.85
2023-02-03T22:57:38.175Z,11.84
2023-02-03T22:59:42.844Z,11.86
2023-02-03T23:01:47.558Z,11.90
2023-02-03T23:03:52.207Z,11.92
2023-02-03T23:05:56.992Z,11.94
2023-02-03T23:08:04.422Z,11.95
2023-02-03T23:10:11.243Z,12.00
2023-02-03T23:12:15.942Z,12.01
2023-02-03T23:14:20.683Z,12.02
2023-02-03T23:16:25.346Z,12.02
2023-02-03T23:18:30.044Z,12.03
2023-02-03T23:20:36.070Z,12.04
2023-02-03T23:22:40.900Z,12.06
2023-02-03T23:24:48.257Z,12.07
2023-02-03T23:26:52.993Z,12.10
2023-02-03T23:28:57.693Z,12.11
2023-02-03T23:31:03.914Z,12.10
2023-02-03T23:33:08.833Z,12.11
2023-02-03T23:35:26.198Z,12.11
2023-02-03T23:37:31.090Z,12.10
2023-02-03T23:39:35.812Z,12.08
2023-02-03T23:41:43.073Z,12.05
2023-02-03T23:43:47.820Z,12.06
2023-02-03T23:45:52.554Z,12.09
2023-02-03T23:47:57.426Z,12.13
2023-02-03T23:50:02.109Z,12.15
2023-02-03T23:52:07.470Z,12.17
2023-02-03T23:54:12.135Z,12.18
2023-02-03T23:56:16.868Z,12.21
2023-02-03T23:58:24.277Z,12.19
